Time;durP1;ratioP1;P1;durP2;ratioP2;P2;SDS_P1;SDS_P2;PMS_P1;PMS_P2;Temp;Humidity;BMP_temperature;BMP_pressure;BME280_temperature;BME280_humidity;BME280_pressure;Samples;Min_cycle;Max_cycle;Signal;HPM_P1;HPM_P2
2022/06/18 00:00:12;;;;;;;3.40;2.90;;;;;;;26.63;42.35;101534.19;5032603;28;20036;-66
2022/06/18 00:02:42;;;;;;;3.10;2.70;;;;;;;26.62;42.26;101535.13;5032952;28;20116;-66
2022/06/18 00:05:10;;;;;;;3.20;2.90;;;;;;;26.61;42.43;101529.81;5032672;28;20087;-66
2022/06/18 00:07:40;;;;;;;3.55;3.10;;;;;;;26.60;42.53;101525.41;5031589;28;20395;-65
2022/06/18 00:10:07;;;;;;;3.28;2.97;;;;;;;26.60;42.63;101525.41;5032919;28;20523;-66
2022/06/18 00:15:22;;;;;;;3.08;2.67;;;;;;;26.61;42.42;101521.81;5034521;28;20041;-66
2022/06/18 00:17:48;;;;;;;3.17;2.88;;;;;;;26.60;42.47;101522.72;5036557;28;20033;-66
2022/06/18 00:20:15;;;;;;;4.90;2.95;;;;;;;26.61;42.20;101516.44;5035728;28;20034;-66
2022/06/18 00:22:44;;;;;;;3.00;2.70;;;;;;;26.59;42.37;101518.34;5035523;28;20025;-66
2022/06/18 00:25:36;;;;;;;3.33;2.78;;;;;;;26.56;42.46;101508.63;5036687;28;20040;-66
2022/06/18 00:28:10;;;;;;;3.10;2.80;;;;;;;26.56;42.61;101513.97;5031946;28;20045;-66
2022/06/18 00:30:36;;;;;;;3.10;2.80;;;;;;;26.58;42.61;101516.59;5036491;28;20041;-66
2022/06/18 00:33:01;;;;;;;3.55;2.90;;;;;;;26.59;42.81;101515.66;5036515;28;20029;-66
2022/06/18 00:35:27;;;;;;;3.42;2.70;;;;;;;26.57;42.54;101510.38;5036233;28;20057;-66
2022/06/18 00:37:55;;;;;;;3.53;2.90;;;;;;;26.56;42.51;101516.66;5036580;28;20048;-66
2022/06/18 00:40:35;;;;;;;3.63;2.83;;;;;;;26.56;42.43;101508.63;5036207;28;20040;-66
2022/06/18 00:43:27;;;;;;;4.03;2.97;;;;;;;26.58;42.36;101505.91;5051381;28;20116;-66
2022/06/18 00:46:00;;;;;;;3.25;2.80;;;;;;;26.54;42.44;101502.47;5026049;28;20065;-66
2022/06/18 00:48:53;;;;;;;3.67;2.90;;;;;;;26.53;42.58;101494.53;5036741;28;20369;-66
2022/06/18 00:51:25;;;;;;;4.90;2.70;;;;;;;26.54;42.38;101490.91;5028328;28;20479;-66
2022/06/18 00:54:00;;;;;;;3.20;2.90;;;;;;;26.54;42.39;101486.44;5051556;28;20033;-66
2022/06/18 00:56:42;;;;;;;3.35;3.03;;;;;;;26.53;42.49;101482.00;5036054;28;20036;-66
2022/06/18 00:59:19;;;;;;;3.17;2.70;;;;;;;26.52;42.54;101487.44;5051471;28;20029;-66
2022/06/18 01:01:48;;;;;;;3.50;2.95;;;;;;;26.52;42.38;101477.63;5036018;28;20136;-66
2022/06/18 01:04:27;;;;;;;3.30;2.90;;;;;;;26.52;42.44;101477.63;5035828;28;20375;-66
2022/06/18 01:06:59;;;;;;;3.67;2.92;;;;;;;26.53;42.52;101481.16;5035727;28;20373;-66
2022/06/18 01:09:25;;;;;;;3.37;2.77;;;;;;;26.53;42.47;101491.88;5035990;28;20399;-66
2022/06/18 01:11:51;;;;;;;3.92;3.00;;;;;;;26.53;42.71;101497.22;5035693;28;20047;-66
2022/06/18 01:14:17;;;;;;;3.28;2.83;;;;;;;26.50;42.64;101497.31;5042918;28;20021;-66
2022/06/18 01:16:43;;;;;;;4.13;2.92;;;;;;;26.49;42.77;101495.59;5035536;28;20160;-66
2022/06/18 01:19:19;;;;;;;3.65;3.08;;;;;;;26.47;42.66;101482.28;5036102;28;20037;-66
2022/06/18 01:22:22;;;;;;;3.60;3.05;;;;;;;26.51;42.45;101481.22;5035838;28;20032;-66
2022/06/18 01:24:47;;;;;;;3.28;2.90;;;;;;;26.51;42.46;101483.91;5034620;28;20029;-67
2022/06/18 01:27:13;;;;;;;3.70;2.70;;;;;;;26.50;42.55;101475.94;5035611;28;21309;-67
2022/06/18 01:29:38;;;;;;;3.08;2.78;;;;;;;26.49;42.59;101474.19;5035634;28;20091;-66
2022/06/18 01:32:07;;;;;;;3.70;3.08;;;;;;;26.47;42.60;101468.91;5035333;28;20041;-66
2022/06/18 01:34:34;;;;;;;3.53;2.78;;;;;;;26.49;42.64;101472.38;5035291;28;20054;-66
2022/06/18 01:37:02;;;;;;;3.20;2.90;;;;;;;26.46;42.61;101469.88;5050619;28;20064;-66
2022/06/18 01:39:33;;;;;;;3.30;2.80;;;;;;;26.46;42.60;101471.66;5034130;28;20075;-66
2022/06/18 01:42:12;;;;;;;3.63;2.80;;;;;;;26.47;42.50;101468.06;5035405;28;20029;-66
2022/06/18 01:44:40;;;;;;;3.05;2.75;;;;;;;26.48;42.61;101464.44;5035198;28;20056;-67
2022/06/18 01:47:26;;;;;;;3.22;2.72;;;;;;;26.47;42.72;101471.56;5035325;28;20511;-66
2022/06/18 01:50:12;;;;;;;3.13;2.83;;;;;;;26.47;42.69;101463.56;5035284;28;20091;-66
2022/06/18 01:52:46;;;;;;;3.45;3.08;;;;;;;26.47;42.55;101463.56;5035125;28;20025;-66
2022/06/18 01:55:19;;;;;;;3.20;2.90;;;;;;;26.48;42.58;101456.41;5035079;28;20061;-66
2022/06/18 01:57:47;;;;;;;;;;;;;;;26.49;42.55;101458.16;5032793;28;20041;-65
2022/06/18 02:00:17;;;;;;;4.15;3.10;;;;;;;26.47;42.56;101454.69;5050348;28;19913;-66
2022/06/18 02:02:45;;;;;;;3.22;2.92;;;;;;;26.46;42.62;101463.66;5035201;28;20045;-66
2022/06/18 02:05:13;;;;;;;3.25;2.90;;;;;;;26.44;42.66;101453.00;5034960;28;20025;-66
2022/06/18 02:07:40;;;;;;;3.53;3.10;;;;;;;26.44;42.67;101447.66;5035179;28;20376;-66
2022/06/18 02:10:18;;;;;;;3.35;3.05;;;;;;;26.45;42.86;101457.44;5034779;28;20053;-65
2022/06/18 02:12:45;;;;;;;3.50;3.00;;;;;;;26.45;42.62;101453.88;5034888;28;20026;-66
2022/06/18 02:15:16;;;;;;;3.67;3.10;;;;;;;26.43;42.74;101458.41;5033530;28;20022;-66
2022/06/18 02:17:42;;;;;;;3.40;2.92;;;;;;;26.41;42.66;101453.13;5034938;28;20472;-66
2022/06/18 02:20:23;;;;;;;3.40;2.88;;;;;;;26.22;43.18;101463.72;5034913;28;20044;-66
2022/06/18 02:22:52;;;;;;;3.10;2.80;;;;;;;26.19;43.26;101462.97;5049905;28;20056;-66
2022/06/18 02:25:21;;;;;;;3.40;3.00;;;;;;;26.17;43.26;101463.03;5034775;28;20438;-66
2022/06/18 02:27:49;;;;;;;3.80;3.20;;;;;;;26.34;42.85;101457.03;5034646;28;20013;-66
2022/06/18 02:30:18;;;;;;;3.42;3.10;;;;;;;26.41;42.72;101454.97;5034732;28;20037;-66
2022/06/18 02:32:55;;;;;;;3.70;2.90;;;;;;;26.41;42.64;101446.94;5034551;28;20036;-67
2022/06/18 02:35:21;;;;;;;3.63;3.13;;;;;;;26.41;42.75;101449.63;5034303;28;20124;-66
2022/06/18 02:37:46;;;;;;;3.35;3.03;;;;;;;26.41;42.60;101447.78;5034005;28;20119;-66
2022/06/18 02:40:30;;;;;;;3.38;2.92;;;;;;;26.39;42.79;101448.78;5034216;28;20468;-66
2022/06/18 02:42:57;;;;;;;;;;;;;;;26.29;43.06;101456.31;5034717;28;20038;-66
2022/06/18 02:45:25;;;;;;;3.20;2.83;;;;;;;26.16;43.44;101461.31;5034195;28;19920;-66
2022/06/18 02:47:53;;;;;;;3.65;3.17;;;;;;;26.14;43.39;101460.50;5034171;28;20025;-66
2022/06/18 02:50:21;;;;;;;3.55;3.10;;;;;;;26.13;43.47;101463.22;5034249;28;20395;-66
2022/06/18 02:52:54;;;;;;;3.63;3.10;;;;;;;26.10;43.49;101461.56;5049300;28;20637;-66
2022/06/18 02:55:27;;;;;;;5.22;3.25;;;;;;;26.10;43.39;101471.38;5034022;28;20076;-66
2022/06/18 02:57:58;;;;;;;3.88;3.17;;;;;;;26.08;43.50;101473.25;5032447;28;20059;-66
2022/06/18 03:00:24;;;;;;;3.75;3.28;;;;;;;26.11;43.27;101475.78;5033787;28;20133;-65
2022/06/18 03:02:49;;;;;;;4.32;3.28;;;;;;;26.11;43.54;101478.44;5032933;28;20133;-66
2022/06/18 03:05:25;;;;;;;5.18;3.03;;;;;;;26.11;43.24;101481.13;5032391;28;20033;-66
2022/06/18 03:07:51;;;;;;;3.42;3.13;;;;;;;26.10;43.18;101480.28;5033889;28;20523;-66
2022/06/18 03:13:02;;;;;;;4.05;3.40;;;;;;;26.08;43.43;101484.81;5033195;28;20052;-66
2022/06/18 03:15:30;;;;;;;4.30;3.10;;;;;;;26.09;43.59;101488.34;5033662;28;20120;-66
2022/06/18 03:17:57;;;;;;;3.83;3.42;;;;;;;26.09;43.55;101496.38;5033590;28;20538;-66
2022/06/18 03:20:28;;;;;;;4.32;3.05;;;;;;;26.08;43.64;101492.81;5032389;28;20118;-66
2022/06/18 03:22:54;;;;;;;4.10;3.30;;;;;;;26.08;43.65;101499.97;5033395;28;20467;-65
2022/06/18 03:25:19;;;;;;;3.38;3.08;;;;;;;26.05;43.51;101500.94;5032347;28;20071;-66
2022/06/18 03:27:44;;;;;;;3.40;3.10;;;;;;;26.05;43.44;101497.41;5033456;28;20116;-68
2022/06/18 03:30:11;;;;;;;3.47;3.10;;;;;;;26.03;43.55;101500.16;5033614;28;20029;-66
2022/06/18 03:32:36;;;;;;;3.72;3.15;;;;;;;26.05;43.37;101505.41;5033292;28;20037;-66
2022/06/18 03:35:02;;;;;;;3.95;3.17;;;;;;;26.05;43.60;101500.94;5031717;28;20492;-65
2022/06/18 03:37:28;;;;;;;4.57;3.30;;;;;;;26.05;43.60;101500.94;5033453;28;20399;-66
2022/06/18 03:39:53;;;;;;;3.50;3.20;;;;;;;26.04;43.59;101509.06;5033215;28;20160;-66
2022/06/18 03:42:18;;;;;;;3.90;3.20;;;;;;;26.25;43.12;101500.16;5031922;28;20029;-66
2022/06/18 03:44:44;;;;;;;3.65;3.25;;;;;;;26.29;43.01;101504.44;5033482;28;20497;-66
2022/06/18 03:47:09;;;;;;;5.03;3.40;;;;;;;26.30;43.09;101505.31;5033167;28;20026;-66
2022/06/18 03:49:34;;;;;;;3.97;3.17;;;;;;;26.30;43.18;101514.22;5032376;28;20057;-66
2022/06/18 03:52:03;;;;;;;4.45;3.50;;;;;;;26.27;43.16;101511.69;5032964;28;20088;-66
2022/06/18 03:54:29;;;;;;;3.50;3.20;;;;;;;26.27;42.96;101525.03;5032780;28;20037;-66
2022/06/18 03:56:54;;;;;;;3.83;3.40;;;;;;;26.28;43.01;101532.13;5048289;28;20033;-66
2022/06/18 03:59:21;;;;;;;3.90;3.40;;;;;;;26.27;43.05;101526.84;5032864;28;20472;-66
2022/06/18 04:01:47;;;;;;;3.78;3.38;;;;;;;26.26;43.15;101536.66;5032857;28;20484;-66
2022/06/18 04:04:13;;;;;;;3.83;3.40;;;;;;;26.28;43.28;101536.59;5032941;28;20086;-66
2022/06/18 04:06:40;;;;;;;3.80;3.40;;;;;;;26.29;43.19;101541.88;5031939;28;20088;-66
2022/06/18 04:09:07;;;;;;;3.75;3.40;;;;;;;26.29;43.01;101538.34;5031588;28;20040;-66
2022/06/18 04:11:33;;;;;;;3.80;3.40;;;;;;;26.29;43.01;101533.00;5033204;28;20388;-66
2022/06/18 04:13:59;;;;;;;4.90;3.53;;;;;;;26.27;43.10;101546.44;5048533;28;20036;-66
2022/06/18 04:16:25;;;;;;;3.65;3.25;;;;;;;26.25;43.17;101545.59;5031475;28;20117;-66
2022/06/18 04:18:50;;;;;;;3.63;3.25;;;;;;;26.24;43.29;101542.06;5032634;28;20057;-66
2022/06/18 04:21:15;;;;;;;4.00;3.10;;;;;;;26.23;43.18;101536.75;5031304;28;20025;-66
2022/06/18 04:23:42;;;;;;;3.40;3.10;;;;;;;26.23;43.30;101542.09;5032770;28;20033;-66
2022/06/18 04:26:08;;;;;;;3.45;3.15;;;;;;;26.23;43.18;101537.66;5032525;28;20633;-66
2022/06/18 04:28:33;;;;;;;3.85;3.30;;;;;;;26.25;43.36;101532.25;5032790;28;20467;-66
2022/06/18 04:30:59;;;;;;;3.58;3.10;;;;;;;26.26;42.96;101536.66;5031376;28;20023;-65
2022/06/18 04:33:24;;;;;;;4.25;3.50;;;;;;;26.26;43.28;101534.00;5032740;28;20522;-66
2022/06/18 04:35:55;;;;;;;4.22;3.38;;;;;;;26.28;43.13;101533.94;5032292;28;20049;-66
2022/06/18 04:38:20;;;;;;;3.33;3.03;;;;;;;26.27;43.18;101529.50;5032641;28;20025;-66
2022/06/18 04:40:46;;;;;;;3.92;3.28;;;;;;;26.28;43.01;101523.25;5032568;28;20547;-66
2022/06/18 04:43:11;;;;;;;3.80;3.00;;;;;;;26.27;42.97;101525.03;5032259;28;20040;-66
2022/06/18 04:45:37;;;;;;;4.10;3.53;;;;;;;26.28;43.10;101525.91;5031388;28;20087;-66
2022/06/18 04:48:04;;;;;;;4.57;3.50;;;;;;;26.25;43.15;101525.09;5032589;28;20036;-66
2022/06/18 04:50:35;;;;;;;3.90;3.28;;;;;;;26.25;43.17;101534.91;5031626;28;20033;-66
2022/06/18 04:53:01;;;;;;;4.75;3.13;;;;;;;26.25;43.20;101532.25;5031110;28;20021;-66
2022/06/18 04:55:27;;;;;;;3.90;3.30;;;;;;;26.25;43.14;101534.91;5032081;28;20121;-66
2022/06/18 04:57:52;;;;;;;3.97;3.38;;;;;;;26.26;43.15;101531.31;5047558;28;20553;-66
2022/06/18 05:00:18;;;;;;;3.55;3.15;;;;;;;26.29;43.03;101522.31;5032070;28;20116;-66
2022/06/18 05:02:44;;;;;;;3.85;3.10;;;;;;;26.30;43.08;101526.69;5035736;28;20372;-66
2022/06/18 05:05:15;;;;;;;4.18;3.38;;;;;;;26.30;43.11;101522.22;5035508;28;20040;-66
2022/06/18 05:07:41;;;;;;;3.33;3.03;;;;;;;26.32;42.92;101517.69;5029390;28;20029;-66
2022/06/18 05:10:07;;;;;;;4.10;3.42;;;;;;;26.35;42.83;101517.56;5034671;28;20039;-66
2022/06/18 05:12:33;;;;;;;3.80;3.35;;;;;;;26.36;42.81;101521.09;5035630;28;20037;-66
2022/06/18 05:14:58;;;;;;;4.20;3.38;;;;;;;26.33;43.00;101522.13;5035356;28;20079;-65
2022/06/18 05:17:30;;;;;;;3.70;3.17;;;;;;;26.32;42.98;101525.72;5035408;28;20033;-66
2022/06/18 05:19:56;;;;;;;3.55;3.20;;;;;;;26.33;43.04;101527.47;5035344;28;20049;-66
2022/06/18 05:22:22;;;;;;;5.50;3.50;;;;;;;26.37;42.93;101530.88;5035339;28;20095;-66
2022/06/18 05:24:47;;;;;;;3.85;3.45;;;;;;;26.38;43.02;101537.94;5034177;28;20179;-66
2022/06/18 05:27:40;;;;;;;4.07;3.40;;;;;;;26.38;43.09;101537.94;5035558;28;20372;-66
2022/06/18 05:30:08;;;;;;;3.85;3.42;;;;;;;26.39;42.86;101542.38;5033283;28;20080;-66
2022/06/18 05:32:34;;;;;;;3.75;3.30;;;;;;;26.40;42.94;101546.78;5035445;28;20029;-66
2022/06/18 05:35:00;;;;;;;3.45;3.13;;;;;;;26.40;42.95;101544.13;5033719;28;20053;-66
2022/06/18 05:37:28;;;;;;;4.47;3.30;;;;;;;26.41;42.88;101545.88;5034150;28;20033;-66
2022/06/18 05:39:54;;;;;;;3.92;3.30;;;;;;;26.38;42.91;101554.88;5035205;28;20025;-66
2022/06/18 05:42:21;;;;;;;3.47;3.17;;;;;;;26.38;42.93;101549.53;5050553;28;20037;-66
2022/06/18 05:44:47;;;;;;;3.75;3.30;;;;;;;26.39;42.89;101551.25;5035345;28;20116;-66
2022/06/18 05:47:15;;;;;;;3.80;3.40;;;;;;;26.43;42.87;101558.22;5035518;28;20125;-66
2022/06/18 05:49:42;;;;;;;3.85;3.20;;;;;;;26.46;42.92;101559.91;5034936;28;20025;-66
2022/06/18 05:52:08;;;;;;;3.88;3.20;;;;;;;26.45;42.82;101561.72;5034836;28;20542;-66
2022/06/18 05:54:34;;;;;;;3.80;3.30;;;;;;;26.47;42.68;101567.00;5035085;28;20036;-66
2022/06/18 05:56:59;;;;;;;4.13;3.28;;;;;;;26.48;42.47;101569.59;5017175;28;20041;-66
2022/06/18 05:59:25;;;;;;;4.35;3.40;;;;;;;26.46;42.63;101570.59;5034869;28;20029;-66
2022/06/18 06:01:50;;;;;;;4.05;3.33;;;;;;;26.46;42.61;101567.94;5033391;28;20448;-66
2022/06/18 06:04:19;;;;;;;4.03;3.30;;;;;;;26.46;42.51;101563.44;5034879;28;20064;-66
2022/06/18 06:06:44;;;;;;;4.65;3.40;;;;;;;26.45;42.66;101563.50;5034530;28;20104;-66
2022/06/18 06:09:12;;;;;;;4.00;3.50;;;;;;;26.46;42.59;101565.25;5034821;28;20120;-66
2022/06/18 06:11:38;;;;;;;4.00;3.55;;;;;;;26.45;42.83;101569.72;5034362;28;20033;-66
2022/06/18 06:14:05;;;;;;;4.78;3.40;;;;;;;26.48;42.78;101576.72;5033871;28;20037;-66
2022/06/18 06:16:30;;;;;;;3.58;3.20;;;;;;;26.47;42.91;101578.53;5034814;28;20040;-66
2022/06/18 06:18:56;;;;;;;3.92;3.40;;;;;;;26.51;42.56;101580.16;5034601;28;20033;-66
2022/06/18 06:21:21;;;;;;;3.70;3.30;;;;;;;26.58;42.64;101586.13;5034549;28;20036;-66
2022/06/18 06:23:47;;;;;;;3.65;3.30;;;;;;;26.59;42.40;101579.84;5016233;28;20091;-66
2022/06/18 06:26:27;;;;;;;4.07;3.42;;;;;;;26.63;42.38;101585.00;5034448;28;20031;-66
2022/06/18 06:28:53;;;;;;;3.90;3.30;;;;;;;26.65;42.41;101588.47;5034226;28;20021;-66
2022/06/18 06:31:18;;;;;;;4.32;3.22;;;;;;;26.67;42.46;101581.25;5034047;28;20120;-66
2022/06/18 06:33:44;;;;;;;4.55;3.33;;;;;;;26.71;42.35;101587.38;5033292;28;20033;-66
2022/06/18 06:36:12;;;;;;;3.40;2.97;;;;;;;26.72;42.38;101594.44;5034418;28;20090;-66
2022/06/18 06:38:38;;;;;;;3.70;3.30;;;;;;;26.70;42.61;101582.94;5034167;28;20036;-66
2022/06/18 06:41:13;;;;;;;4.25;3.30;;;;;;;26.71;42.34;101590.03;5033936;28;20499;-66
2022/06/18 06:43:38;;;;;;;4.07;3.30;;;;;;;26.71;42.47;101592.72;5033799;28;20036;-66
2022/06/18 06:46:04;;;;;;;4.43;3.10;;;;;;;26.75;42.47;101588.97;5016290;28;20097;-66
2022/06/18 06:48:29;;;;;;;4.18;3.22;;;;;;;26.79;42.27;101587.00;5033995;28;20057;-66
2022/06/18 06:50:54;;;;;;;4.32;3.33;;;;;;;26.82;42.50;101592.25;5049343;28;20030;-66
2022/06/18 06:53:20;;;;;;;3.65;3.20;;;;;;;26.82;42.36;101590.44;5033862;28;20033;-66
2022/06/18 06:58:46;;;;;;;4.13;3.35;;;;;;;26.85;42.56;101592.09;4992216;28;20559;-66
2022/06/18 07:01:13;;;;;;;3.58;2.97;;;;;;;26.86;42.46;101601.88;5024822;28;20056;-66
2022/06/18 07:03:38;;;;;;;4.57;3.30;;;;;;;26.87;42.49;101599.16;5033620;28;20060;-66
2022/06/18 07:06:04;;;;;;;4.05;3.20;;;;;;;26.90;42.41;101601.72;5033288;28;20048;-66
2022/06/18 07:08:29;;;;;;;4.30;3.30;;;;;;;26.95;42.32;101589.03;5049142;28;20041;-66
2022/06/18 07:10:55;;;;;;;4.22;3.30;;;;;;;26.95;42.28;101598.84;5048544;28;20075;-66
2022/06/18 07:13:20;;;;;;;4.53;3.30;;;;;;;26.96;42.21;101593.41;5033583;28;20471;-66
2022/06/18 07:16:23;;;;;;;4.15;3.40;;;;;;;26.97;42.25;101592.47;5032138;28;20033;-66
2022/06/18 07:18:50;;;;;;;4.13;3.40;;;;;;;27.01;42.12;101594.09;5038113;28;20044;-66
2022/06/18 07:21:15;;;;;;;3.63;3.22;;;;;;;27.02;42.17;101594.94;5033367;28;20064;-66
2022/06/18 07:23:41;;;;;;;4.00;3.50;;;;;;;27.03;42.14;101605.59;5031979;28;20033;-66
2022/06/18 07:26:07;;;;;;;3.45;3.10;;;;;;;27.05;42.06;101618.91;5033333;28;20033;-66
2022/06/18 07:28:33;;;;;;;4.72;3.53;;;;;;;27.08;42.11;101613.41;5031635;28;20107;-66
2022/06/18 07:30:59;;;;;;;4.18;3.20;;;;;;;27.09;42.38;101608.94;5033078;28;20033;-66
2022/06/18 07:33:26;;;;;;;3.50;3.20;;;;;;;27.11;42.09;101617.78;5032041;28;20075;-66
2022/06/18 07:35:52;;;;;;;3.72;3.22;;;;;;;27.09;42.32;101617.84;5031891;28;20045;-66
2022/06/18 07:38:18;;;;;;;4.55;3.53;;;;;;;27.10;42.18;101629.41;5033247;28;20075;-66
2022/06/18 07:40:53;;;;;;;4.13;3.30;;;;;;;27.11;42.30;101631.16;5022900;28;20097;-66
2022/06/18 07:43:33;;;;;;;4.00;3.38;;;;;;;27.11;42.33;101629.38;5032860;28;20071;-66
2022/06/18 07:46:01;;;;;;;3.80;3.40;;;;;;;27.18;42.32;101627.28;5033290;28;20025;-66
2022/06/18 07:48:26;;;;;;;4.18;3.30;;;;;;;27.19;42.13;101629.91;5032888;28;20483;-67
2022/06/18 07:50:51;;;;;;;4.53;3.28;;;;;;;27.20;42.01;101625.44;5048007;28;20163;-66
2022/06/18 07:53:19;;;;;;;3.83;3.20;;;;;;;27.18;42.29;101629.97;5032822;28;20033;-66
2022/06/18 07:55:52;;;;;;;5.22;3.80;;;;;;;27.18;42.42;101632.66;5032804;28;20044;-66
2022/06/18 07:58:17;;;;;;;4.40;3.50;;;;;;;27.19;42.45;101629.91;5032752;28;20044;-66
2022/06/18 08:00:43;;;;;;;4.13;3.30;;;;;;;27.19;42.20;101616.53;5032868;28;20034;-66
2022/06/18 08:03:11;;;;;;;4.57;3.50;;;;;;;27.21;42.05;101622.66;5032708;28;20171;-66
2022/06/18 08:05:37;;;;;;;4.10;3.30;;;;;;;27.20;42.52;101625.44;5032639;28;20017;-66
2022/06/18 08:08:03;;;;;;;3.30;3.00;;;;;;;27.25;42.05;101624.28;5032578;28;20045;-66
2022/06/18 08:10:30;;;;;;;4.22;3.40;;;;;;;27.25;42.35;101621.59;5047750;28;20036;-66
2022/06/18 08:12:55;;;;;;;3.97;3.30;;;;;;;27.27;42.16;101611.69;5032470;28;20045;-66
2022/06/18 08:15:21;;;;;;;4.15;3.33;;;;;;;27.29;42.16;101617.84;5032571;28;20021;-66
2022/06/18 08:17:46;;;;;;;4.25;3.28;;;;;;;27.29;42.33;101625.00;5031303;28;20029;-66
2022/06/18 08:20:12;;;;;;;5.13;3.40;;;;;;;27.31;42.46;101615.97;5031603;28;20079;-66
2022/06/18 08:22:42;;;;;;;4.75;3.63;;;;;;;27.32;42.11;101615.06;5032426;28;20029;-66
2022/06/18 08:25:09;;;;;;;4.50;3.50;;;;;;;27.32;42.33;101612.38;5032601;28;20087;-66
2022/06/18 08:27:36;;;;;;;3.80;3.30;;;;;;;27.32;42.18;101607.03;5032328;28;20036;-67
2022/06/18 08:30:03;;;;;;;4.45;3.50;;;;;;;27.31;42.25;101604.41;5032722;28;20380;-66
2022/06/18 08:32:29;;;;;;;3.83;3.40;;;;;;;27.32;42.51;101608.81;5032242;28;20018;-66
2022/06/18 08:34:54;;;;;;;4.13;3.47;;;;;;;27.32;42.36;101607.03;5032198;28;20104;-66
2022/06/18 08:37:19;;;;;;;4.97;3.58;;;;;;;27.34;42.24;101605.13;5034190;28;20049;-67
2022/06/18 08:39:45;;;;;;;3.58;3.17;;;;;;;27.34;42.25;101602.44;5036183;28;20108;-66
2022/06/18 08:42:29;;;;;;;3.78;3.30;;;;;;;27.35;42.49;101612.22;5035117;28;20033;-66
2022/06/18 08:45:17;;;;;;;4.28;3.35;;;;;;;27.37;42.34;101617.50;5051522;28;20025;-66
2022/06/18 08:47:46;;;;;;;3.60;3.28;;;;;;;27.37;42.30;101615.72;5036345;28;20430;-67
2022/06/18 08:50:21;;;;;;;3.97;3.47;;;;;;;27.39;42.20;101611.13;5036459;28;20502;-66
2022/06/18 08:52:58;;;;;;;4.13;3.33;;;;;;;27.39;42.36;101611.13;5036296;28;20032;-67
2022/06/18 08:55:23;;;;;;;5.45;3.28;;;;;;;27.39;42.42;101613.81;5036046;28;20028;-66
2022/06/18 08:58:11;;;;;;;3.78;3.38;;;;;;;27.42;42.52;101616.38;5051338;28;20037;-66
2022/06/18 09:00:48;;;;;;;5.10;3.40;;;;;;;27.45;42.31;101626.06;5034928;28;20025;-66
2022/06/18 09:03:46;;;;;;;4.18;3.35;;;;;;;27.44;42.49;101619.84;5051348;28;20033;-66
2022/06/18 09:06:32;;;;;;;4.28;3.30;;;;;;;27.46;42.45;101627.78;5035918;28;20124;-66
2022/06/18 09:09:08;;;;;;;4.90;3.42;;;;;;;27.48;42.30;101627.75;5051408;28;20064;-66
2022/06/18 09:12:09;;;;;;;4.10;3.30;;;;;;;27.48;42.24;101625.94;5035688;28;20049;-66
2022/06/18 09:15:01;;;;;;;3.92;3.28;;;;;;;27.51;42.45;101627.63;5035672;28;20032;-66
2022/06/18 09:17:29;;;;;;;3.85;3.10;;;;;;;27.51;42.48;101632.97;5035738;28;20053;-66
2022/06/18 09:20:08;;;;;;;4.28;3.40;;;;;;;27.51;42.33;101641.00;5035704;28;20033;-66
2022/06/18 09:22:39;;;;;;;4.55;3.15;;;;;;;27.51;42.47;101636.53;5035448;28;20436;-66
2022/06/18 09:25:13;;;;;;;3.75;3.35;;;;;;;27.49;42.62;101635.72;5035569;28;20503;-66
2022/06/18 09:27:42;;;;;;;;;;;;;;;27.51;42.39;101639.19;5025058;28;20029;-68
2022/06/18 09:30:12;;;;;;;4.20;3.50;;;;;;;27.51;42.42;101639.19;5035567;28;19919;-66
2022/06/18 09:32:54;;;;;;;3.38;3.00;;;;;;;27.52;42.58;101640.94;5035406;28;20021;-66
2022/06/18 09:35:22;;;;;;;5.22;3.40;;;;;;;27.56;42.49;101644.38;5034979;28;20045;-66
2022/06/18 09:37:56;;;;;;;4.22;3.25;;;;;;;27.56;42.71;101637.22;5035494;28;20119;-66
2022/06/18 09:40:29;;;;;;;3.88;3.25;;;;;;;27.57;42.44;101633.56;5035088;28;20036;-66
2022/06/18 09:43:14;;;;;;;4.07;3.22;;;;;;;27.57;42.52;101636.25;5035516;28;20029;-66
2022/06/18 09:45:45;;;;;;;4.10;3.42;;;;;;;27.58;42.58;101645.16;5035306;28;20087;-66
2022/06/18 09:48:11;;;;;;;4.03;3.00;;;;;;;27.59;42.67;101630.81;5033690;28;20022;-66
2022/06/18 09:50:43;;;;;;;4.32;3.20;;;;;;;27.57;42.50;101635.41;5034131;28;20395;-66
2022/06/18 09:53:36;;;;;;;4.18;3.35;;;;;;;27.57;42.38;101646.13;5035268;28;20099;-66
2022/06/18 09:56:08;;;;;;;4.70;3.22;;;;;;;27.58;42.73;101634.44;5050076;28;20052;-66
2022/06/18 09:58:37;;;;;;;3.83;3.10;;;;;;;27.57;42.42;101644.28;5035177;28;20025;-66
2022/06/18 10:01:04;;;;;;;5.10;3.42;;;;;;;27.57;42.75;101643.44;5035087;28;20033;-66
2022/06/18 10:09:10;;;;;;;4.15;3.40;;;;;;;27.63;42.58;101614.53;5027833;28;20048;-66
2022/06/18 10:11:38;;;;;;;3.75;3.33;;;;;;;27.65;42.45;101625.19;5034777;28;20021;-66
2022/06/18 10:14:03;;;;;;;4.25;3.20;;;;;;;27.65;42.58;101620.72;5033365;28;20061;-66
2022/06/18 10:16:44;;;;;;;4.00;3.10;;;;;;;27.65;42.42;101618.03;5034862;28;20430;-66
2022/06/18 10:19:30;;;;;;;4.78;3.00;;;;;;;27.66;42.60;101613.53;5034848;28;20033;-66
2022/06/18 10:22:04;;;;;;;3.65;3.13;;;;;;;27.66;42.46;101616.22;5050316;28;20471;-66
2022/06/18 10:24:36;;;;;;;3.70;3.22;;;;;;;27.65;42.63;101610.00;5034562;28;20021;-66
2022/06/18 10:27:02;;;;;;;3.78;3.25;;;;;;;27.65;42.58;101607.31;5034326;28;20025;-66
2022/06/18 10:29:48;;;;;;;3.70;3.08;;;;;;;27.67;42.77;101601.88;5034447;28;20471;-66
2022/06/18 10:32:26;;;;;;;3.58;3.05;;;;;;;27.67;42.84;101599.22;5034604;28;20025;-66
2022/06/18 10:35:12;;;;;;;4.18;3.20;;;;;;;27.71;42.45;101603.47;5034119;28;20053;-66
2022/06/18 10:38:05;;;;;;;3.53;2.90;;;;;;;27.73;42.34;101589.09;5034388;28;20533;-66
2022/06/18 10:41:09;;;;;;;3.50;3.10;;;;;;;27.73;42.50;101585.53;5032806;28;20387;-66
2022/06/18 10:43:54;;;;;;;4.18;3.28;;;;;;;27.75;42.57;101589.84;5019561;28;20068;-66
2022/06/18 10:46:21;;;;;;;4.28;3.20;;;;;;;27.78;42.47;101586.19;5049673;28;20473;-66
2022/06/18 10:49:01;;;;;;;3.42;3.10;;;;;;;27.77;42.51;101589.78;5033993;28;20384;-66
2022/06/18 10:51:33;;;;;;;4.03;2.97;;;;;;;27.78;42.52;101587.06;5049399;28;20083;-66
2022/06/18 10:54:03;;;;;;;4.57;3.20;;;;;;;27.79;42.31;101583.44;5034053;28;20474;-66
2022/06/18 10:56:32;;;;;;;4.00;3.00;;;;;;;27.77;42.65;101576.41;5032195;28;20113;-66
2022/06/18 10:59:03;;;;;;;3.80;3.00;;;;;;;27.77;42.34;101573.72;5033431;28;20034;-66
2022/06/18 11:01:46;;;;;;;4.03;2.97;;;;;;;27.75;42.53;101571.09;5023569;28;20064;-67
2022/06/18 11:04:30;;;;;;;3.20;2.80;;;;;;;27.78;42.67;101576.34;5033631;28;20033;-66
2022/06/18 11:06:59;;;;;;;3.53;3.10;;;;;;;27.79;42.44;101578.06;5033851;28;20021;-66
2022/06/18 11:09:28;;;;;;;3.75;3.00;;;;;;;27.80;42.58;101576.28;5032589;28;20052;-66
2022/06/18 11:11:57;;;;;;;3.88;2.92;;;;;;;27.81;42.51;101567.28;5033577;28;20025;-66
2022/06/18 11:14:23;;;;;;;3.80;2.97;;;;;;;27.82;42.54;101577.91;5033306;28;20072;-66
2022/06/18 11:16:54;;;;;;;3.40;3.00;;;;;;;27.84;42.54;101572.50;5032177;28;20091;-66
2022/06/18 11:19:29;;;;;;;4.50;2.72;;;;;;;27.85;42.56;101572.44;5033665;28;20493;-66
2022/06/18 11:21:55;;;;;;;3.13;2.78;;;;;;;27.89;42.34;101566.91;5033403;28;20040;-66
2022/06/18 11:24:32;;;;;;;3.92;2.90;;;;;;;27.90;42.41;101568.66;5033471;28;20033;-66
2022/06/18 11:27:01;;;;;;;3.22;2.70;;;;;;;27.90;42.42;101566.84;5033923;28;20030;-66
2022/06/18 11:29:29;;;;;;;3.30;2.80;;;;;;;27.91;42.28;101565.91;5033551;28;20033;-67
2022/06/18 11:31:57;;;;;;;4.20;2.80;;;;;;;27.92;42.65;101567.66;5029015;28;20313;-66
2022/06/18 11:34:33;;;;;;;4.40;3.00;;;;;;;27.92;42.31;101566.78;5033305;28;20507;-66
2022/06/18 11:36:59;;;;;;;3.50;2.88;;;;;;;27.91;42.40;101575.75;5032895;28;20495;-66
2022/06/18 11:39:29;;;;;;;3.92;2.90;;;;;;;27.92;42.56;101586.41;5033064;28;20107;-66
2022/06/18 11:41:59;;;;;;;3.20;2.80;;;;;;;27.93;42.49;101585.47;5033247;28;20064;-66
2022/06/18 11:44:42;;;;;;;3.30;2.90;;;;;;;27.92;42.69;101585.53;5032967;28;20080;-66
2022/06/18 11:47:16;;;;;;;3.47;3.10;;;;;;;27.91;42.66;101575.75;5033108;28;20028;-67
2022/06/18 11:49:47;;;;;;;3.10;2.72;;;;;;;27.91;42.77;101581.97;5048471;28;20048;-66
2022/06/18 11:52:42;;;;;;;4.20;3.00;;;;;;;27.92;42.50;101580.19;5033384;28;20025;-66
2022/06/18 11:55:21;;;;;;;3.13;2.70;;;;;;;27.92;42.50;101577.50;5020912;28;20052;-66